createdAt,value
2022-12-15T00:07:25.802Z,-7.52
2022-12-15T00:17:25.930Z,-7.48
2022-12-15T00:27:25.851Z,-7.5
2022-12-15T00:37:25.904Z,-7.73
2022-12-15T00:47:25.881Z,-7.95
2022-12-15T00:57:25.937Z,-8
2022-12-15T01:07:25.907Z,-7.63
2022-12-15T01:17:25.940Z,-7.64
2022-12-15T01:27:25.951Z,-7.72
2022-12-15T01:37:25.992Z,-7.92
2022-12-15T01:47:26.002Z,-8.12
2022-12-15T01:57:26.036Z,-8.24
2022-12-15T02:07:26.013Z,-8.15
2022-12-15T02:17:26.070Z,-8.07
2022-12-15T02:27:26.043Z,-7.96
2022-12-15T02:37:26.130Z,-8.03
2022-12-15T02:47:26.060Z,-8.15
2022-12-15T02:57:26.226Z,-8.21
2022-12-15T03:07:26.111Z,-8.18
2022-12-15T03:17:26.134Z,-7.93
2022-12-15T03:27:26.131Z,-7.9
2022-12-15T03:37:26.176Z,-7.74
2022-12-15T03:47:26.176Z,-7.69
2022-12-15T03:57:26.215Z,-7.57
2022-12-15T04:07:26.213Z,-7.73
2022-12-15T04:17:26.341Z,-7.78
2022-12-15T04:27:26.265Z,-7.68
2022-12-15T04:37:26.284Z,-7.73
2022-12-15T04:47:26.310Z,-7.77
2022-12-15T04:57:26.289Z,-7.92
2022-12-15T05:07:26.286Z,-8.12
2022-12-15T05:17:26.375Z,-8.32
2022-12-15T05:27:26.330Z,-8.44
2022-12-15T05:37:26.350Z,-8.58
2022-12-15T05:47:26.368Z,-8.67
2022-12-15T05:57:26.418Z,-8.78
2022-12-15T06:07:26.406Z,-8.89
2022-12-15T06:17:26.450Z,-9
2022-12-15T06:27:26.461Z,-9.1
2022-12-15T06:37:26.492Z,-9.07
2022-12-15T06:47:26.467Z,-9.04
2022-12-15T06:57:26.520Z,-9.02
2022-12-15T07:07:26.526Z,-8.98
2022-12-15T07:17:26.566Z,-8.97
2022-12-15T07:27:26.518Z,-8.69
2022-12-15T07:37:26.590Z,-8.43
2022-12-15T07:47:26.603Z,-8.06
2022-12-15T07:57:26.623Z,-7.83
2022-12-15T08:07:26.610Z,-7.6
2022-12-15T08:17:26.700Z,-7.21
2022-12-15T08:27:26.649Z,-6.96
2022-12-15T08:37:26.670Z,-6.41
2022-12-15T08:47:26.664Z,-6
2022-12-15T08:57:26.712Z,-5.82
2022-12-15T09:07:26.709Z,-5.22
2022-12-15T09:17:26.887Z,-4.41
2022-12-15T09:27:26.762Z,-3.47
2022-12-15T09:37:26.751Z,-3.35
2022-12-15T09:47:26.743Z,-1.56
2022-12-15T09:57:26.859Z,-1.22
2022-12-15T10:07:26.744Z,-1.11
2022-12-15T10:17:26.865Z,0.42
2022-12-15T10:27:26.762Z,0.13
2022-12-15T10:37:26.796Z,0.77
2022-12-15T10:47:26.761Z,0.87
2022-12-15T10:57:26.854Z,0.01
2022-12-15T11:07:26.767Z,-0.37
2022-12-15T11:17:26.811Z,-0.76
2022-12-15T11:27:26.798Z,-0.85
2022-12-15T11:37:30.764Z,-0.78
2022-12-15T11:47:26.834Z,-0.58
2022-12-15T11:57:26.840Z,-0.23
2022-12-15T12:07:26.800Z,-0.27
2022-12-15T12:17:26.837Z,-0.25
2022-12-15T12:27:26.829Z,-0.18
2022-12-15T12:37:26.859Z,-0.19
2022-12-15T12:57:26.871Z,-0.26
2022-12-15T13:07:26.845Z,-0.14
2022-12-15T13:17:27.629Z,0.24
2022-12-15T13:27:26.871Z,0.25
2022-12-15T13:37:26.923Z,0.04
2022-12-15T13:47:26.903Z,0
2022-12-15T13:57:26.915Z,-0.06
2022-12-15T14:07:26.902Z,-0.2
2022-12-15T14:17:26.939Z,-0.31
2022-12-15T14:27:26.907Z,-0.55
2022-12-15T14:37:26.961Z,-0.69
2022-12-15T14:47:27.085Z,-0.82
2022-12-15T14:57:26.981Z,-0.92
2022-12-15T15:07:26.927Z,-1.15
2022-12-15T15:17:26.994Z,-1.35
2022-12-15T15:27:27.122Z,-1.58
2022-12-15T15:37:27.020Z,-1.76
2022-12-15T15:47:26.985Z,-1.79
2022-12-15T15:57:27.001Z,-1.95
2022-12-15T16:07:26.993Z,-2
2022-12-15T16:17:27.079Z,-2.11
2022-12-15T16:27:27.010Z,-2.04
2022-12-15T16:37:27.134Z,-1.9
2022-12-15T16:47:27.023Z,-1.78
2022-12-15T16:57:27.052Z,-1.64
2022-12-15T17:07:27.024Z,-1.54
2022-12-15T17:17:27.070Z,-1.42
2022-12-15T17:27:27.067Z,-1.32
2022-12-15T17:37:31.949Z,-1.31
2022-12-15T17:47:27.067Z,-1.27
2022-12-15T17:57:27.082Z,-1.32
2022-12-15T18:07:27.097Z,-1.46
2022-12-15T18:17:27.244Z,-1.58
2022-12-15T18:27:27.093Z,-1.67
2022-12-15T18:37:27.127Z,-1.75
2022-12-15T18:47:27.191Z,-1.82
2022-12-15T18:57:27.166Z,-1.86
2022-12-15T19:07:27.142Z,-1.94
2022-12-15T19:17:27.148Z,-1.89
2022-12-15T19:27:27.151Z,-1.83
2022-12-15T19:37:27.182Z,-1.7
2022-12-15T19:47:27.167Z,-1.63
2022-12-15T19:57:27.172Z,-1.57
2022-12-15T20:07:27.177Z,-1.52
2022-12-15T20:17:27.187Z,-1.5
2022-12-15T20:27:27.184Z,-1.49
2022-12-15T20:37:27.216Z,-1.5
2022-12-15T20:47:27.192Z,-1.48
2022-12-15T20:57:27.228Z,-1.49
2022-12-15T21:07:27.208Z,-1.47
2022-12-15T21:17:27.258Z,-1.43
2022-12-15T21:27:27.217Z,-1.43
2022-12-15T21:37:27.287Z,-1.43
2022-12-15T21:47:27.235Z,-1.4
2022-12-15T21:57:27.272Z,-1.39
2022-12-15T22:07:27.244Z,-1.38
2022-12-15T22:17:27.333Z,-1.39
2022-12-15T22:27:27.261Z,-1.39
2022-12-15T22:37:27.282Z,-1.37
2022-12-15T22:47:27.295Z,-1.39
2022-12-15T22:57:27.304Z,-1.36
2022-12-15T23:07:27.321Z,-1.37
2022-12-15T23:17:27.392Z,-1.36
2022-12-15T23:27:27.299Z,-1.34
2022-12-15T23:37:27.332Z,-1.35
2022-12-15T23:47:27.310Z,-1.3
2022-12-15T23:57:27.337Z,-1.29
